Time;durP1;ratioP1;P1;durP2;ratioP2;P2;SDS_P1;SDS_P2;PMS_P1;PMS_P2;Temp;Humidity;BMP_temperature;BMP_pressure;BME280_temperature;BME280_humidity;BME280_pressure;Samples;Min_cycle;Max_cycle;Signal;HPM_P1;HPM_P2
2021/05/26 00:02:12;;;;;;;5.60;3.67;;;;;;;15.60;90.01;94537.98;1742164;81;21112;-53
2021/05/26 00:04:40;;;;;;;7.60;3.92;;;;;;;15.57;90.16;94555.57;1742790;81;20991;-53
2021/05/26 00:07:07;;;;;;;4.92;3.92;;;;;;;15.52;90.38;94557.65;1741968;81;21614;-50
2021/05/26 00:09:33;;;;;;;7.05;3.65;;;;;;;15.51;90.79;94570.62;1739040;82;21052;-51
2021/05/26 00:12:01;;;;;;;7.08;4.08;;;;;;;15.52;90.70;94557.65;1741551;82;20968;-51
2021/05/26 00:14:29;;;;;;;8.45;4.70;;;;;;;15.54;90.82;94579.36;1741606;81;21015;-51
2021/05/26 00:19:42;;;;;;;5.50;4.00;;;;;;;15.57;90.73;94574.98;1889513;76;23791;-51
2021/05/26 00:22:10;;;;;;;8.00;4.28;;;;;;;15.48;91.06;94593.14;1860470;77;21480;-51
2021/05/26 00:24:38;;;;;;;7.12;4.17;;;;;;;15.48;91.20;94595.91;1860540;77;21064;-51
2021/05/26 00:27:05;;;;;;;7.58;4.97;;;;;;;15.48;91.26;94595.91;1860443;77;21544;-51
2021/05/26 00:29:31;;;;;;;7.03;4.65;;;;;;;15.48;91.48;94602.84;1860599;77;20938;-52
2021/05/26 00:31:58;;;;;;;8.00;3.67;;;;;;;15.56;91.83;94604.59;1860431;77;21516;-51
2021/05/26 00:34:24;;;;;;;6.28;4.03;;;;;;;15.62;91.54;94614.53;1860531;77;20957;-51
2021/05/26 00:36:51;;;;;;;5.65;4.15;;;;;;;15.64;91.30;94600.94;1861273;76;21555;-51
2021/05/26 00:39:18;;;;;;;5.10;4.08;;;;;;;15.64;91.09;94616.20;1880984;75;20845;-53
2021/05/26 00:41:45;;;;;;;5.97;4.28;;;;;;;15.64;91.12;94634.22;1881203;76;21516;-51
2021/05/26 00:44:16;;;;;;;9.73;3.92;;;;;;;15.65;91.30;94617.72;1881015;76;20912;-52
2021/05/26 00:46:47;;;;;;;6.65;3.52;;;;;;;15.62;90.89;94613.14;1881331;76;20956;-52
2021/05/26 00:49:14;;;;;;;8.85;3.90;;;;;;;15.57;90.94;94609.64;1806983;79;21087;-51
2021/05/26 00:51:41;;;;;;;4.72;4.10;;;;;;;15.52;90.77;94586.77;1822358;78;21044;-51
2021/05/26 00:54:08;;;;;;;7.37;3.75;;;;;;;15.45;90.88;94594.11;1822328;78;20892;-52
2021/05/26 00:56:37;;;;;;;4.35;3.95;;;;;;;15.43;90.58;94599.38;1822312;78;20928;-53
2021/05/26 00:59:06;;;;;;;4.50;4.08;;;;;;;15.41;90.69;94588.01;1822271;78;21019;-52
2021/05/26 01:01:33;;;;;;;5.00;3.70;;;;;;;15.41;90.57;94594.94;1822430;78;21092;-52
2021/05/26 01:04:04;;;;;;;5.83;4.20;;;;;;;15.35;90.38;94599.62;1806435;79;20960;-52
2021/05/26 01:06:30;;;;;;;5.40;4.28;;;;;;;15.28;90.43;94590.90;1822424;78;21455;-51
2021/05/26 01:08:57;;;;;;;5.30;3.40;;;;;;;15.22;90.71;94579.72;1806658;79;21483;-51
2021/05/26 01:11:24;;;;;;;3.92;3.42;;;;;;;15.23;90.96;94574.95;1822283;78;21055;-52
2021/05/26 01:13:52;;;;;;;6.62;4.17;;;;;;;15.21;91.12;94562.95;1822222;78;21578;-52
2021/05/26 01:16:18;;;;;;;8.03;4.03;;;;;;;15.16;91.21;94570.56;1822472;78;20912;-51
2021/05/26 01:18:48;;;;;;;6.15;3.90;;;;;;;15.11;91.42;94576.02;1822355;78;20853;-52
2021/05/26 01:21:22;;;;;;;3.83;3.40;;;;;;;15.06;91.46;94574.70;1822066;78;20972;-52
2021/05/26 01:23:50;;;;;;;3.60;3.00;;;;;;;15.02;91.64;94566.44;1822187;78;20919;-52
2021/05/26 01:26:31;;;;;;;6.65;3.72;;;;;;;14.98;91.92;94558.95;1822118;78;21716;-51
2021/05/26 01:28:57;;;;;;;5.53;4.22;;;;;;;14.96;92.20;94553.88;1822326;78;20957;-51
2021/05/26 01:31:26;;;;;;;4.22;3.62;;;;;;;14.99;92.72;94535.55;1821787;78;20900;-51
2021/05/26 01:33:57;;;;;;;6.00;3.60;;;;;;;15.04;92.82;94537.63;1820997;78;20908;-53
2021/05/26 01:36:26;;;;;;;5.92;4.00;;;;;;;15.04;92.61;94548.71;1821653;78;20912;-51
2021/05/26 01:38:52;;;;;;;9.23;3.92;;;;;;;15.07;92.84;94552.69;1821569;78;21499;-52
2021/05/26 01:41:19;;;;;;;6.65;4.50;;;;;;;15.10;92.29;94546.78;1821789;78;21456;-51
2021/05/26 01:43:47;;;;;;;6.60;3.58;;;;;;;15.09;92.24;94551.58;1805887;79;21476;-51
2021/05/26 01:46:14;;;;;;;7.50;3.15;;;;;;;15.12;92.19;94547.06;1821678;78;20964;-51
2021/05/26 01:48:40;;;;;;;4.97;3.30;;;;;;;15.10;91.93;94547.56;1806057;78;20877;-51
2021/05/26 01:51:07;;;;;;;6.17;4.15;;;;;;;15.12;92.16;94552.60;1792190;78;21084;-52
2021/05/26 01:53:35;;;;;;;7.75;3.85;;;;;;;15.11;91.99;94556.63;1821665;78;20936;-52
2021/05/26 01:56:04;;;;;;;5.97;3.50;;;;;;;15.08;92.14;94566.67;1821872;78;20901;-52
2021/05/26 01:58:33;;;;;;;3.72;3.42;;;;;;;15.11;92.25;94571.25;1790314;78;20999;-53
2021/05/26 02:01:01;;;;;;;4.80;3.87;;;;;;;15.15;92.44;94582.89;1821600;78;21579;-52
2021/05/26 02:03:30;;;;;;;4.85;4.20;;;;;;;15.23;92.37;94586.82;1821550;78;21020;-53
2021/05/26 02:05:59;;;;;;;5.37;3.70;;;;;;;15.23;91.74;94593.75;1821739;78;20877;-52
2021/05/26 02:08:25;;;;;;;6.33;3.05;;;;;;;15.16;91.59;94593.38;1806010;78;20936;-52
2021/05/26 02:13:37;;;;;;;5.35;4.35;;;;;;;15.05;91.83;94629.98;1806118;79;21459;-51
2021/05/26 02:16:05;;;;;;;7.37;3.98;;;;;;;15.00;92.20;94642.35;1821565;78;22220;-52
2021/05/26 02:18:34;;;;;;;4.80;4.05;;;;;;;14.98;92.35;94641.43;1821201;78;21594;-51
2021/05/26 02:21:00;;;;;;;6.15;4.30;;;;;;;14.99;92.47;94649.88;1821736;78;20988;-51
2021/05/26 02:23:27;;;;;;;6.87;4.40;;;;;;;15.01;92.39;94657.73;1821754;78;21490;-51
2021/05/26 02:25:54;;;;;;;5.62;4.42;;;;;;;15.02;92.50;94652.33;1821647;78;20902;-51
2021/05/26 02:28:21;;;;;;;4.35;3.70;;;;;;;15.04;92.77;94656.77;1805847;79;21108;-50
2021/05/26 02:30:48;;;;;;;4.83;4.30;;;;;;;15.10;92.69;94658.40;1821592;78;21082;-53
2021/05/26 02:33:15;;;;;;;5.12;4.35;;;;;;;15.14;92.71;94661.73;1821737;78;21028;-57
2021/05/26 02:35:42;;;;;;;6.83;4.20;;;;;;;15.22;92.75;94664.25;1821776;78;20980;-54
2021/05/26 02:38:09;;;;;;;4.92;4.42;;;;;;;15.25;92.42;94661.16;1821596;78;20904;-54
2021/05/26 02:40:36;;;;;;;5.22;4.03;;;;;;;15.28;92.10;94658.20;1821731;78;21068;-55
2021/05/26 02:43:04;;;;;;;5.62;4.40;;;;;;;15.28;91.63;94658.20;1821268;78;20912;-54
2021/05/26 02:45:31;;;;;;;4.35;3.87;;;;;;;15.28;91.60;94673.44;1806079;79;21463;-54
2021/05/26 02:48:00;;;;;;;6.55;4.45;;;;;;;15.27;91.35;94695.48;1821717;78;20928;-54
2021/05/26 02:50:28;;;;;;;5.25;4.53;;;;;;;15.23;91.27;94705.22;1819173;78;20920;-55
2021/05/26 02:52:55;;;;;;;4.40;3.77;;;;;;;15.22;91.58;94708.59;1821602;78;21142;-54
2021/05/26 02:55:24;;;;;;;3.85;3.55;;;;;;;15.26;91.61;94709.80;1821585;78;20920;-52
2021/05/26 02:57:56;;;;;;;4.45;4.05;;;;;;;15.27;91.41;94698.25;1821304;78;20964;-50
2021/05/26 03:00:27;;;;;;;5.40;4.58;;;;;;;15.23;91.21;94694.91;1803231;78;20904;-51
2021/05/26 03:03:10;;;;;;;5.33;4.17;;;;;;;15.18;91.29;94700.35;1821638;78;20912;-50
2021/05/26 03:05:40;;;;;;;5.62;3.75;;;;;;;15.11;90.96;94693.18;1821473;78;21085;-50
2021/05/26 03:08:09;;;;;;;3.72;3.42;;;;;;;15.05;90.96;94692.33;1821499;78;20897;-51
2021/05/26 03:10:38;;;;;;;4.15;3.50;;;;;;;14.95;89.78;94695.02;1792539;78;20927;-52
2021/05/26 03:13:09;;;;;;;4.08;3.37;;;;;;;14.83;88.49;94691.89;1821449;78;20969;-51
2021/05/26 03:15:37;;;;;;;4.30;3.25;;;;;;;14.67;87.71;94686.80;1821624;78;20964;-53
2021/05/26 03:18:06;;;;;;;3.30;3.00;;;;;;;14.54;86.95;94686.92;1820734;78;21890;-53
2021/05/26 03:20:33;;;;;;;7.72;3.47;;;;;;;14.38;86.41;94686.60;1823175;78;21091;-51
2021/05/26 03:23:03;;;;;;;7.97;3.60;;;;;;;14.25;86.56;94697.14;1823411;78;21043;-51
2021/05/26 03:25:48;;;;;;;4.70;3.42;;;;;;;14.12;85.87;94699.34;1823108;78;21087;-52
2021/05/26 03:28:15;;;;;;;5.03;3.58;;;;;;;13.98;85.15;94697.30;1823485;78;21039;-51
2021/05/26 03:30:42;;;;;;;5.10;3.50;;;;;;;13.86;84.32;94688.59;1810543;79;21676;-53
2021/05/26 03:33:11;;;;;;;4.22;3.70;;;;;;;13.71;84.24;94696.82;1823454;78;21055;-53
2021/05/26 03:35:40;;;;;;;4.10;3.60;;;;;;;13.56;84.49;94723.60;1823393;78;21056;-52
2021/05/26 03:38:06;;;;;;;9.45;3.60;;;;;;;13.48;85.20;94729.92;1823344;78;21563;-52
2021/05/26 03:40:35;;;;;;;5.45;3.52;;;;;;;13.47;85.51;94731.91;1823122;78;21027;-52
2021/05/26 03:43:03;;;;;;;4.28;3.85;;;;;;;13.46;84.90;94732.39;1823645;78;21167;-51
2021/05/26 03:45:32;;;;;;;4.83;3.98;;;;;;;13.38;84.21;94731.95;1820310;78;21059;-52
2021/05/26 03:48:01;;;;;;;4.03;3.20;;;;;;;13.29;84.51;94732.59;1810574;79;21110;-50
2021/05/26 03:50:29;;;;;;;6.08;3.60;;;;;;;13.26;84.76;94739.05;1823533;78;21051;-51
2021/05/26 03:52:58;;;;;;;4.00;3.60;;;;;;;13.24;84.64;94747.04;1810588;79;21032;-51
2021/05/26 03:55:26;;;;;;;4.83;3.95;;;;;;;13.24;84.03;94755.33;1823595;78;21073;-50
2021/05/26 03:57:54;;;;;;;4.60;4.00;;;;;;;13.16;83.48;94758.25;1822382;78;21551;-52
2021/05/26 04:00:24;;;;;;;4.37;3.98;;;;;;;13.04;83.38;94757.82;1823508;78;21558;-52
2021/05/26 04:02:56;;;;;;;3.75;3.37;;;;;;;12.98;83.84;94766.55;1821861;78;21590;-53
2021/05/26 04:05:23;;;;;;;4.53;4.05;;;;;;;12.98;84.37;94772.08;1823363;78;21063;-52
2021/05/26 04:07:51;;;;;;;5.75;4.22;;;;;;;12.98;84.49;94773.45;1810545;79;21104;-51
2021/05/26 04:10:20;;;;;;;4.67;3.87;;;;;;;12.95;83.52;94781.29;1823457;78;21000;-52
2021/05/26 04:12:46;;;;;;;4.15;3.75;;;;;;;12.85;82.96;94772.81;1823474;78;21059;-51
2021/05/26 04:15:24;;;;;;;5.92;4.08;;;;;;;12.75;82.82;94784.47;1823593;78;21017;-51
2021/05/26 04:18:07;;;;;;;5.30;3.83;;;;;;;12.61;83.01;94785.09;1751936;78;21043;-51
2021/05/26 04:20:35;;;;;;;7.15;4.30;;;;;;;12.51;83.12;94779.25;1823398;78;21111;-51
2021/05/26 04:23:03;;;;;;;4.05;3.60;;;;;;;12.42;83.19;94793.80;1823326;78;21023;-51
2021/05/26 04:25:31;;;;;;;4.20;3.80;;;;;;;12.38;82.64;94797.33;1823389;78;21580;-50
2021/05/26 04:27:59;;;;;;;6.20;4.12;;;;;;;12.36;82.80;94794.25;1810479;79;21099;-52
2021/05/26 04:30:26;;;;;;;6.83;3.67;;;;;;;12.40;82.79;94805.13;1823688;78;21098;-50
2021/05/26 04:32:53;;;;;;;5.17;4.33;;;;;;;12.42;82.01;94807.59;1823368;78;21042;-50
2021/05/26 04:35:20;;;;;;;7.15;4.17;;;;;;;12.42;81.86;94806.84;1823366;78;21110;-50
2021/05/26 04:37:47;;;;;;;6.62;4.03;;;;;;;12.36;81.69;94801.16;1810591;79;21079;-51
2021/05/26 04:40:16;;;;;;;4.85;4.45;;;;;;;12.33;81.82;94797.16;1823509;78;21598;-50
2021/05/26 04:42:42;;;;;;;5.25;4.72;;;;;;;12.30;81.80;94800.20;1823379;78;21546;-53
2021/05/26 04:45:12;;;;;;;8.68;4.10;;;;;;;12.28;81.54;94811.55;1823353;78;21091;-52
2021/05/26 04:47:40;;;;;;;6.17;4.08;;;;;;;12.25;80.84;94816.61;1810505;78;21571;-50
2021/05/26 04:50:10;;;;;;;4.53;3.75;;;;;;;12.15;80.73;94824.69;1823402;78;21055;-52
2021/05/26 04:52:37;;;;;;;4.25;3.85;;;;;;;12.11;80.92;94827.58;1823383;78;21043;-52
2021/05/26 04:55:05;;;;;;;7.30;4.50;;;;;;;12.06;81.03;94829.56;1810333;79;21067;-51
2021/05/26 04:57:32;;;;;;;5.00;3.83;;;;;;;12.07;81.14;94834.48;1823370;78;21064;-52
2021/05/26 05:00:00;;;;;;;4.80;4.30;;;;;;;12.06;81.21;94840.59;1810405;79;21044;-51
2021/05/26 05:02:27;;;;;;;5.12;4.62;;;;;;;12.07;81.36;94855.91;1823445;78;20991;-53
2021/05/26 05:04:53;;;;;;;7.30;5.33;;;;;;;12.11;81.11;94866.81;1823240;78;21082;-51
2021/05/26 05:07:21;;;;;;;12.00;7.50;;;;;;;12.16;80.79;94867.00;1810797;79;21129;-51
2021/05/26 05:09:48;;;;;;;5.92;4.95;;;;;;;12.20;80.35;94863.48;1823626;78;21068;-50
2021/05/26 05:12:15;;;;;;;5.58;4.22;;;;;;;12.21;79.74;94866.98;1810581;79;21047;-51
2021/05/26 05:14:43;;;;;;;4.90;4.50;;;;;;;12.19;79.36;94864.70;1819075;78;21079;-51
2021/05/26 05:17:10;;;;;;;6.20;4.55;;;;;;;12.16;79.30;94875.27;1790501;78;21083;-54
2021/05/26 05:19:36;;;;;;;7.53;5.78;;;;;;;12.14;79.39;94870.04;1804943;78;21225;-53
2021/05/26 05:22:04;;;;;;;6.95;5.33;;;;;;;12.11;79.31;94870.95;1792584;78;21105;-52
2021/05/26 05:24:31;;;;;;;5.78;4.72;;;;;;;12.17;79.18;94872.66;1800091;78;21095;-58
2021/05/26 05:26:58;;;;;;;9.65;5.85;;;;;;;12.19;79.34;94870.22;1796375;78;21612;-54
2021/05/26 05:29:25;;;;;;;5.87;5.25;;;;;;;12.22;79.10;94867.14;1802668;78;21087;-52
2021/05/26 05:31:52;;;;;;;6.47;5.75;;;;;;;12.25;79.18;94875.91;1777207;78;21608;-53
2021/05/26 05:34:18;;;;;;;6.45;5.35;;;;;;;12.25;79.31;94875.29;1803913;78;21069;-53
2021/05/26 05:36:46;;;;;;;6.58;4.67;;;;;;;12.31;79.15;94880.98;1827971;77;21094;-50
2021/05/26 05:39:12;;;;;;;6.55;5.40;;;;;;;12.35;78.97;94881.00;1783048;78;21076;-54
2021/05/26 05:41:39;;;;;;;5.10;4.60;;;;;;;12.40;79.10;94884.54;1787200;78;21159;-52
2021/05/26 05:44:06;;;;;;;5.42;4.50;;;;;;;12.52;78.75;94885.64;1801203;78;21065;-53
2021/05/26 05:46:34;;;;;;;11.25;6.30;;;;;;;12.58;78.39;94892.27;1783972;78;21099;-51
2021/05/26 05:49:01;;;;;;;10.08;5.85;;;;;;;12.69;78.13;94887.70;1787037;78;21106;-52
2021/05/26 05:51:29;;;;;;;7.67;5.15;;;;;;;12.74;78.21;94889.84;1792477;78;21044;-55
2021/05/26 05:53:56;;;;;;;10.78;6.72;;;;;;;12.78;77.61;94897.36;1796368;78;21609;-54
2021/05/26 05:56:23;;;;;;;11.22;6.50;;;;;;;12.82;77.74;94888.31;1792001;78;21568;-54
2021/05/26 05:58:50;;;;;;;8.35;7.17;;;;;;;12.95;77.59;94887.61;1792292;78;21406;-54
2021/05/26 06:01:19;;;;;;;5.95;5.35;;;;;;;13.10;77.25;94891.31;1788849;78;21095;-54
2021/05/26 06:03:50;;;;;;;9.30;5.40;;;;;;;13.21;76.71;94897.13;1764159;78;21559;-54
2021/05/26 06:06:17;;;;;;;5.10;4.60;;;;;;;13.25;75.91;94899.91;1782731;78;21125;-54
2021/05/26 06:08:43;;;;;;;6.08;4.30;;;;;;;13.30;75.00;94899.28;1784000;78;21348;-54
2021/05/26 06:11:10;;;;;;;7.35;4.80;;;;;;;13.32;74.93;94897.45;1794149;78;21693;-55
2021/05/26 06:13:37;;;;;;;8.18;5.47;;;;;;;13.35;74.49;94901.45;1788031;79;21138;-52
2021/05/26 06:16:05;;;;;;;10.00;6.80;;;;;;;13.35;74.39;94898.69;1779292;78;21621;-53
2021/05/26 06:18:32;;;;;;;9.35;5.80;;;;;;;13.37;75.01;94903.13;1794300;78;21576;-51
2021/05/26 06:20:58;;;;;;;6.67;5.60;;;;;;;13.42;74.89;94905.91;1792774;78;21109;-52
2021/05/26 06:23:26;;;;;;;7.45;4.95;;;;;;;13.53;75.34;94898.68;1795650;78;21645;-51
2021/05/26 06:25:53;;;;;;;8.48;5.35;;;;;;;13.65;74.66;94903.25;1778779;78;21264;-55
2021/05/26 06:28:19;;;;;;;10.10;5.80;;;;;;;13.68;73.89;94907.88;1807082;78;21136;-51
2021/05/26 06:30:47;;;;;;;8.40;5.72;;;;;;;13.73;74.16;94906.47;1805247;78;21177;-55
2021/05/26 06:33:14;;;;;;;5.72;4.67;;;;;;;13.81;74.18;94909.09;1807215;78;21628;-52
2021/05/26 06:35:40;;;;;;;8.05;5.05;;;;;;;13.81;73.59;94901.55;1788123;78;21065;-51
2021/05/26 06:38:08;;;;;;;11.68;4.72;;;;;;;13.75;73.12;94908.16;1816269;78;21035;-51
2021/05/26 06:40:35;;;;;;;7.40;5.03;;;;;;;13.69;72.27;94900.34;1786024;78;21062;-53
2021/05/26 06:43:03;;;;;;;6.97;5.30;;;;;;;13.61;73.15;94896.37;1805935;77;21407;-56
2021/05/26 06:45:30;;;;;;;9.40;5.12;;;;;;;13.55;72.70;94901.74;1780077;79;21057;-54
2021/05/26 06:47:57;;;;;;;8.80;4.85;;;;;;;13.53;72.85;94892.37;1810225;77;21081;-52
2021/05/26 06:50:25;;;;;;;7.20;4.70;;;;;;;13.55;72.85;94903.73;1804649;78;21146;-52
2021/05/26 06:52:52;;;;;;;4.97;3.92;;;;;;;13.57;72.92;94899.88;1816859;78;21022;-54
2021/05/26 06:55:19;;;;;;;4.83;4.08;;;;;;;13.59;73.38;94909.26;1801132;78;21150;-54
2021/05/26 06:57:46;;;;;;;9.33;4.75;;;;;;;13.64;73.54;94902.35;1804875;78;21029;-53
2021/05/26 07:00:14;;;;;;;11.63;5.08;;;;;;;13.68;73.17;94905.12;1798019;78;21087;-53
2021/05/26 07:02:41;;;;;;;7.50;5.12;;;;;;;13.80;73.51;94903.41;1815269;78;21575;-53
2021/05/26 07:05:11;;;;;;;6.85;6.03;;;;;;;13.89;73.28;94897.84;1791224;79;20984;-55
2021/05/26 07:07:37;;;;;;;9.65;5.00;;;;;;;13.98;73.65;94904.13;1807513;78;21094;-55
2021/05/26 07:10:07;;;;;;;5.65;5.05;;;;;;;14.09;73.39;94903.63;1798089;78;21191;-51
2021/05/26 07:12:33;;;;;;;8.33;4.70;;;;;;;14.25;73.38;94903.30;1801204;78;21105;-51
2021/05/26 07:15:01;;;;;;;10.20;5.65;;;;;;;14.40;72.27;94904.17;1797434;78;21073;-53
2021/05/26 07:17:29;;;;;;;8.50;6.78;;;;;;;14.55;71.73;94905.79;1783569;79;21063;-51
2021/05/26 07:19:57;;;;;;;9.08;4.97;;;;;;;14.74;71.47;94901.09;1801340;77;21082;-52
2021/05/26 07:22:24;;;;;;;10.25;5.53;;;;;;;14.97;70.98;94906.51;1746302;80;21050;-55
2021/05/26 07:24:51;;;;;;;7.42;4.70;;;;;;;15.10;70.56;94896.71;1786390;78;21094;-53
2021/05/26 07:27:18;;;;;;;13.13;4.97;;;;;;;15.25;70.98;94899.53;1804810;77;21018;-56
2021/05/26 07:29:44;;;;;;;4.28;3.70;;;;;;;15.34;69.74;94897.48;1748996;80;21062;-55
2021/05/26 07:32:13;;;;;;;11.63;4.67;;;;;;;15.44;69.91;94903.72;1777433;78;21628;-54
2021/05/26 07:34:40;;;;;;;9.23;5.55;;;;;;;15.42;69.12;94908.98;1770556;78;21622;-58
2021/05/26 07:37:07;;;;;;;9.98;4.97;;;;;;;15.42;69.00;94901.44;1787283;78;21063;-64
2021/05/26 07:39:36;;;;;;;5.42;4.47;;;;;;;15.48;69.47;94900.14;1732169;79;21044;-59
2021/05/26 07:42:05;;;;;;;7.05;4.90;;;;;;;15.56;69.55;94900.69;1788304;79;21088;-59
2021/05/26 07:44:32;;;;;;;6.95;4.72;;;;;;;15.57;70.05;94907.02;1772078;78;21083;-60
2021/05/26 07:46:59;;;;;;;9.03;5.05;;;;;;;15.57;70.34;94903.60;1786828;78;21047;-58
2021/05/26 07:49:27;;;;;;;8.25;5.35;;;;;;;15.61;70.33;94902.82;1786113;78;21106;-59
2021/05/26 07:51:56;;;;;;;6.22;5.03;;;;;;;15.64;69.61;94896.92;1784124;78;21133;-58
2021/05/26 07:54:23;;;;;;;7.70;5.70;;;;;;;15.68;69.17;94894.12;1792475;78;21075;-58
2021/05/26 07:56:50;;;;;;;8.23;5.87;;;;;;;15.76;69.02;94895.27;1778554;78;21001;-58
2021/05/26 07:59:17;;;;;;;13.40;5.35;;;;;;;15.92;68.98;94903.13;1786302;78;21062;-58
2021/05/26 08:01:44;;;;;;;10.82;5.20;;;;;;;16.12;68.84;94898.31;1763728;79;21110;-60
2021/05/26 08:04:11;;;;;;;8.40;5.20;;;;;;;16.27;68.15;94893.53;1775434;79;21099;-60
2021/05/26 08:06:38;;;;;;;5.83;4.60;;;;;;;16.35;67.53;94894.08;1783003;78;21543;-57
2021/05/26 08:09:04;;;;;;;12.25;5.67;;;;;;;16.48;66.88;94894.52;1788242;78;21134;-55
2021/05/26 08:11:32;;;;;;;5.12;4.40;;;;;;;16.63;67.19;94893.87;1780509;78;21617;-55
2021/05/26 08:14:01;;;;;;;9.13;5.50;;;;;;;16.71;67.25;94888.07;1790222;78;21144;-58
2021/05/26 08:16:29;;;;;;;10.25;6.72;;;;;;;16.81;66.58;94895.02;1782838;78;21075;-65
2021/05/26 08:18:56;;;;;;;11.83;6.62;;;;;;;16.99;66.10;94894.78;1774269;78;21624;-58
2021/05/26 08:21:24;;;;;;;13.08;6.30;;;;;;;17.06;65.32;94891.61;1775866;78;21280;-60
2021/05/26 08:23:51;;;;;;;10.53;5.92;;;;;;;17.19;65.37;94896.18;1778726;79;21213;-59
2021/05/26 08:26:21;;;;;;;8.58;5.85;;;;;;;17.28;65.26;94900.23;1760421;79;21508;-56
2021/05/26 08:28:46;;;;;;;10.68;5.00;;;;;;;17.43;64.83;94894.01;1771081;80;22209;-57
2021/05/26 08:31:14;;;;;;;17.57;6.35;;;;;;;17.57;64.73;94886.19;1748790;79;21213;-56
2021/05/26 08:33:41;;;;;;;10.60;5.47;;;;;;;17.66;63.75;94888.83;1773463;80;21254;-53
2021/05/26 08:36:12;;;;;;;9.00;5.35;;;;;;;17.71;62.92;94889.52;1778719;79;21982;-54
2021/05/26 08:38:40;;;;;;;16.07;5.50;;;;;;;17.71;62.96;94890.91;1771826;78;21573;-60
2021/05/26 08:41:08;;;;;;;7.22;4.67;;;;;;;17.80;63.68;94896.33;1780802;79;21155;-56
2021/05/26 08:43:36;;;;;;;8.88;4.72;;;;;;;17.92;63.24;94893.78;1768067;79;21065;-57
2021/05/26 08:46:04;;;;;;;8.03;6.55;;;;;;;17.99;62.82;94887.80;1722355;81;21512;-57
2021/05/26 08:48:31;;;;;;;8.10;5.10;;;;;;;18.13;63.30;94895.39;1774588;79;22467;-60
2021/05/26 08:50:58;;;;;;;9.78;4.85;;;;;;;18.18;62.48;94890.38;1774231;79;21223;-57
2021/05/26 08:53:25;;;;;;;11.78;6.53;;;;;;;18.24;61.75;94890.58;1775080;79;21456;-56
2021/05/26 08:55:52;;;;;;;8.30;5.47;;;;;;;18.34;61.42;94888.55;1768575;79;21095;-63
2021/05/26 08:58:19;;;;;;;8.33;4.70;;;;;;;18.50;61.33;94879.53;1777006;78;21133;-55
2021/05/26 09:00:47;;;;;;;18.80;6.85;;;;;;;18.66;61.98;94882.33;1770760;79;21048;-59
2021/05/26 09:03:15;;;;;;;11.97;5.67;;;;;;;18.76;61.54;94882.25;1764642;79;21686;-58
2021/05/26 09:05:43;;;;;;;5.85;4.50;;;;;;;18.83;60.87;94881.17;1773121;80;21679;-56
2021/05/26 09:08:20;;;;;;;29.15;13.25;;;;;;;18.81;60.26;94869.75;1769281;79;21038;-59
2021/05/26 09:10:52;;;;;;;17.25;8.18;;;;;;;18.74;60.79;94879.20;1783188;79;21078;-58
2021/05/26 09:13:35;;;;;;;21.73;7.58;;;;;;;18.84;60.92;94875.72;1775812;79;21041;-56
2021/05/26 09:16:22;;;;;;;9.23;5.00;;;;;;;18.97;60.17;94864.91;1782951;79;21790;-61
2021/05/26 09:19:02;;;;;;;6.97;4.50;;;;;;;19.05;60.74;94868.75;1757384;78;21246;-58
2021/05/26 09:21:45;;;;;;;5.47;3.90;;;;;;;19.15;60.11;94863.11;1776985;78;21035;-59
2021/05/26 09:24:27;;;;;;;9.50;4.95;;;;;;;19.26;59.50;94859.64;1760290;78;21484;-59
2021/05/26 09:27:03;;;;;;;;;;;;;;;19.24;58.80;94851.78;1772279;80;21082;-62
2021/05/26 09:29:33;;;;;;;6.83;3.92;;;;;;;19.23;59.25;94846.70;1761814;78;21087;-64
2021/05/26 09:32:22;;;;;;;9.30;4.80;;;;;;;19.30;60.26;94851.17;1777772;78;21070;-56
2021/05/26 09:34:51;;;;;;;5.50;4.20;;;;;;;19.47;59.43;94850.61;1783666;79;21476;-55
2021/05/26 09:37:27;;;;;;;4.72;4.08;;;;;;;19.50;58.15;94842.62;1782433;78;21146;-57
2021/05/26 09:40:09;;;;;;;4.78;3.75;;;;;;;19.36;57.95;94838.00;1786853;78;21141;-56
2021/05/26 09:42:39;;;;;;;7.20;4.50;;;;;;;19.28;58.40;94837.58;1774411;78;21259;-59
2021/05/26 09:45:18;;;;;;;7.87;3.22;;;;;;;19.24;58.10;94832.26;1761117;78;21087;-59
2021/05/26 09:47:50;;;;;;;3.72;3.42;;;;;;;19.21;60.32;94834.63;1773186;78;21059;-56
2021/05/26 09:50:34;;;;;;;7.80;3.98;;;;;;;19.31;59.14;94819.22;1776091;79;21072;-58
2021/05/26 09:53:13;;;;;;;3.95;3.55;;;;;;;19.34;57.97;94813.27;1781798;78;21075;-56
2021/05/26 09:55:45;;;;;;;11.35;4.20;;;;;;;19.35;57.99;94819.73;1780181;78;21787;-55
2021/05/26 09:58:14;;;;;;;3.50;3.20;;;;;;;19.46;58.44;94821.80;1763317;78;20965;-54
2021/05/26 10:00:43;;;;;;;5.12;3.67;;;;;;;19.55;58.56;94813.95;1776205;78;21006;-55
2021/05/26 10:03:10;;;;;;;8.05;3.87;;;;;;;19.62;58.00;94820.47;1774371;78;21245;-57
2021/05/26 10:05:37;;;;;;;9.13;4.83;;;;;;;19.67;57.47;94825.91;1804642;78;21012;-57
2021/05/26 10:08:22;;;;;;;8.53;5.22;;;;;;;19.67;57.01;94816.92;1778510;78;21232;-57
2021/05/26 10:10:55;;;;;;;11.88;5.72;;;;;;;19.70;58.34;94814.51;1768632;78;21571;-56
2021/05/26 10:13:25;;;;;;;5.75;4.25;;;;;;;19.80;57.34;94806.66;1753779;80;21093;-56
2021/05/26 10:15:54;;;;;;;11.33;4.90;;;;;;;19.94;58.00;94809.20;1755844;78;21093;-55
2021/05/26 10:18:20;;;;;;;7.50;3.95;;;;;;;20.12;57.46;94807.35;1754310;81;21545;-54
2021/05/26 10:20:47;;;;;;;3.62;3.33;;;;;;;20.31;57.60;94809.77;1749614;80;21134;-56
2021/05/26 10:23:18;;;;;;;9.53;3.72;;;;;;;20.50;57.77;94803.16;1810003;79;21096;-56
2021/05/26 10:25:47;;;;;;;4.55;3.33;;;;;;;20.73;57.39;94802.50;1790690;80;21069;-56
2021/05/26 10:28:33;;;;;;;6.28;3.42;;;;;;;20.94;55.65;94796.75;1792964;79;21037;-55
2021/05/26 10:31:02;;;;;;;5.22;3.05;;;;;;;21.18;54.86;94801.12;1790846;80;21112;-55
2021/05/26 10:33:50;;;;;;;5.10;2.85;;;;;;;21.48;54.22;94797.82;1790375;80;21108;-56
2021/05/26 10:36:17;;;;;;;9.80;4.03;;;;;;;21.75;54.63;94799.73;1789333;78;21543;-58
2021/05/26 10:39:01;;;;;;;8.50;3.27;;;;;;;22.03;52.63;94786.43;1769853;78;21161;-59
2021/05/26 10:41:53;;;;;;;4.95;3.45;;;;;;;22.34;52.99;94792.95;1789423;80;21150;-57
2021/05/26 10:44:22;;;;;;;6.75;3.30;;;;;;;22.63;50.03;94790.05;1751641;80;21036;-58
2021/05/26 10:46:50;;;;;;;4.08;2.83;;;;;;;22.73;49.95;94784.97;1764294;80;22251;-56
2021/05/26 10:49:17;;;;;;;3.35;2.92;;;;;;;22.76;51.40;94782.52;1790623;78;21576;-58
2021/05/26 10:51:57;;;;;;;5.53;3.33;;;;;;;22.88;50.95;94783.16;1795844;78;21135;-56
2021/05/26 10:54:44;;;;;;;11.43;4.15;;;;;;;22.96;50.05;94779.23;1789786;79;21089;-57
2021/05/26 10:57:11;;;;;;;4.83;3.05;;;;;;;23.09;49.60;94775.14;1790327;78;21061;-59
2021/05/26 10:59:39;;;;;;;3.67;3.12;;;;;;;23.37;48.79;94774.19;1804109;78;21096;-56
2021/05/26 11:02:11;;;;;;;8.35;3.42;;;;;;;23.64;48.31;94770.27;1790811;78;21613;-57
2021/05/26 11:04:40;;;;;;;3.67;2.92;;;;;;;23.94;48.21;94772.27;1795588;78;21055;-58
2021/05/26 11:07:25;;;;;;;7.28;2.85;;;;;;;24.19;48.16;94766.67;1790578;78;21133;-57
2021/05/26 11:10:05;;;;;;;5.80;3.25;;;;;;;24.52;46.94;94767.54;1789481;78;21520;-55
2021/05/26 11:12:59;;;;;;;3.60;3.00;;;;;;;24.82;45.03;94768.81;1806797;78;21224;-55
2021/05/26 11:15:42;;;;;;;8.75;3.25;;;;;;;25.08;44.58;94768.08;1789565;78;21081;-56
2021/05/26 11:18:15;;;;;;;;;;;;;;;25.45;44.36;94760.83;1803734;78;21094;-55
2021/05/26 11:20:42;;;;;;;7.17;3.25;;;;;;;25.83;44.26;94764.87;1797709;78;20386;-57
2021/05/26 11:23:13;;;;;;;5.75;3.12;;;;;;;26.04;43.14;94758.75;1795866;78;21004;-59
2021/05/26 11:25:57;;;;;;;11.68;2.80;;;;;;;26.34;42.00;94763.28;1796573;78;21086;-56
2021/05/26 11:28:32;;;;;;;6.20;2.80;;;;;;;26.62;40.50;94756.33;1811951;78;21536;-57
2021/05/26 11:31:11;;;;;;;3.80;2.47;;;;;;;26.80;40.67;94756.77;1799312;78;21035;-56
2021/05/26 11:33:39;;;;;;;4.22;2.37;;;;;;;26.97;40.81;94752.84;1803373;78;21055;-57
2021/05/26 11:36:08;;;;;;;9.48;2.85;;;;;;;27.28;40.38;94753.18;1802301;78;21030;-58
2021/05/26 11:38:35;;;;;;;5.28;2.60;;;;;;;27.54;41.17;94755.77;1804535;78;21088;-60
2021/05/26 11:41:17;;;;;;;6.15;2.47;;;;;;;27.89;39.36;94749.34;1801968;78;22278;-57
2021/05/26 11:43:45;;;;;;;8.28;2.30;;;;;;;27.99;38.62;94746.06;1806582;78;21007;-55
2021/05/26 11:46:12;;;;;;;4.60;2.33;;;;;;;27.97;38.12;94748.70;1788463;77;21099;-60
2021/05/26 11:48:47;;;;;;;8.98;1.82;;;;;;;28.02;38.05;94739.31;1778037;79;21586;-62